Time;durP1;ratioP1;P1;durP2;ratioP2;P2;SDS_P1;SDS_P2;PMS_P1;PMS_P2;Temp;Humidity;BMP_temperature;BMP_pressure;BME280_temperature;BME280_humidity;BME280_pressure;Samples;Min_cycle;Max_cycle;Signal;HPM_P1;HPM_P2
2023/07/12 00:01:09;;;;;;;4.32;3.13;;;24.40;66.60;;;;;;4995304;28;20049;-79
2023/07/12 00:03:55;;;;;;;6.78;3.60;;;24.40;66.80;;;;;;5005817;28;20030;-77
2023/07/12 00:06:41;;;;;;;6.35;3.15;;;24.30;66.70;;;;;;4999205;28;20034;-76
2023/07/12 00:09:27;;;;;;;4.25;2.80;;;24.30;66.80;;;;;;4996371;28;20034;-78
2023/07/12 00:12:13;;;;;;;7.25;3.67;;;24.30;67.00;;;;;;5011625;28;20145;-77
2023/07/12 00:14:59;;;;;;;3.88;2.78;;;24.30;67.00;;;;;;5009415;28;20034;-77
2023/07/12 00:17:45;;;;;;;4.35;3.00;;;24.30;67.10;;;;;;5012236;28;20116;-77
2023/07/12 00:20:35;;;;;;;3.67;2.58;;;24.20;67.20;;;;;;4996983;28;20098;-77
2023/07/12 00:23:21;;;;;;;5.95;2.78;;;24.20;67.30;;;;;;4999800;28;20042;-77
2023/07/12 00:26:23;;;;;;;5.78;2.78;;;24.20;67.40;;;;;;4999699;28;20042;-79
2023/07/12 00:29:09;;;;;;;6.45;3.20;;;24.20;67.70;;;;;;4996302;28;20037;-78
2023/07/12 00:31:55;;;;;;;4.47;2.78;;;24.20;67.60;;;;;;4992007;28;20037;-78
2023/07/12 00:34:41;;;;;;;4.20;2.85;;;24.20;67.80;;;;;;4992158;28;20034;-78
2023/07/12 00:37:27;;;;;;;4.97;3.20;;;24.20;68.10;;;;;;5005979;28;20041;-78
2023/07/12 00:40:41;;;;;;;5.07;2.85;;;24.10;68.10;;;;;;5007633;28;20036;-75
2023/07/12 00:43:43;;;;;;;6.28;3.15;;;24.10;68.20;;;;;;5005353;28;20042;-78
2023/07/12 00:46:42;;;;;;;3.65;2.92;;;24.10;68.20;;;;;;4999225;28;20037;-75
2023/07/12 00:49:27;;;;;;;4.53;2.90;;;24.10;68.40;;;;;;5007219;28;20029;-76
2023/07/12 00:52:16;;;;;;;4.88;3.45;;;24.10;68.40;;;;;;5005069;28;20483;-77
2023/07/12 00:55:03;;;;;;;6.20;2.60;;;24.00;68.50;;;;;;4993292;28;20561;-77
2023/07/12 00:57:49;;;;;;;4.47;3.17;;;24.00;68.60;;;;;;5001810;28;20034;-79
2023/07/12 01:00:35;;;;;;;4.88;2.85;;;24.00;68.70;;;;;;5008572;28;20037;-78
2023/07/12 01:03:22;;;;;;;4.05;2.88;;;24.00;68.80;;;;;;5011658;28;20053;-78
2023/07/12 01:06:11;;;;;;;4.80;3.38;;;23.90;68.90;;;;;;5006785;28;20038;-79
2023/07/12 01:09:01;;;;;;;5.18;3.05;;;23.90;69.10;;;;;;4992475;28;20031;-79
2023/07/12 01:11:48;;;;;;;6.00;3.40;;;23.90;69.20;;;;;;5007635;28;20046;-69
2023/07/12 01:14:34;;;;;;;4.90;3.05;;;23.80;69.20;;;;;;4998636;28;20041;-70
2023/07/12 01:17:23;;;;;;;5.20;2.97;;;23.80;69.30;;;;;;5003978;28;20038;-70
2023/07/12 01:20:10;;;;;;;3.97;2.88;;;23.80;69.50;;;;;;5004503;28;20018;-69
2023/07/12 01:22:56;;;;;;;6.05;3.35;;;23.80;69.60;;;;;;5006646;28;20054;-69
2023/07/12 01:25:45;;;;;;;3.92;2.80;;;23.80;69.70;;;;;;4993336;28;20034;-69
2023/07/12 01:28:31;;;;;;;4.90;3.35;;;23.80;69.70;;;;;;5009910;28;20121;-68
2023/07/12 01:31:18;;;;;;;4.18;3.00;;;23.80;69.90;;;;;;5005163;28;20035;-69
2023/07/12 01:34:04;;;;;;;5.85;3.25;;;23.70;70.00;;;;;;4992409;28;20622;-68
2023/07/12 01:36:50;;;;;;;5.40;3.05;;;23.70;70.00;;;;;;5000386;28;20057;-68
2023/07/12 01:39:36;;;;;;;5.15;3.55;;;23.70;70.20;;;;;;5003881;28;20038;-68
2023/07/12 01:42:22;;;;;;;3.58;2.95;;;23.70;70.20;;;;;;5010584;28;20049;-68
2023/07/12 01:45:08;;;;;;;4.15;2.70;;;23.70;70.30;;;;;;5001509;28;20561;-69
2023/07/12 01:47:56;;;;;;;5.85;3.28;;;23.70;70.40;;;;;;4992873;28;20187;-68
2023/07/12 01:50:42;;;;;;;5.30;3.05;;;23.70;70.50;;;;;;4992168;28;20034;-69
2023/07/12 01:53:29;;;;;;;4.72;3.47;;;23.60;70.60;;;;;;5006868;28;20387;-68
2023/07/12 01:56:16;;;;;;;4.47;2.78;;;23.60;70.80;;;;;;5006399;28;20021;-69
2023/07/12 01:59:03;;;;;;;5.47;3.25;;;23.60;70.80;;;;;;5010595;28;20034;-68
2023/07/12 02:01:48;;;;;;;5.10;3.45;;;23.60;70.90;;;;;;5009669;28;20514;-67
2023/07/12 02:04:35;;;;;;;4.82;3.25;;;23.60;71.00;;;;;;4999878;28;20045;-69
2023/07/12 02:07:21;;;;;;;4.38;3.10;;;23.60;71.10;;;;;;5010809;28;20040;-68
2023/07/12 02:10:16;;;;;;;6.55;3.50;;;23.60;71.20;;;;;;5009247;28;20057;-69
2023/07/12 02:13:02;;;;;;;5.70;3.53;;;23.50;71.20;;;;;;5011145;28;20129;-69
2023/07/12 02:15:48;;;;;;;4.68;3.22;;;23.60;71.20;;;;;;4996822;28;20030;-69
2023/07/12 02:18:34;;;;;;;6.07;2.90;;;23.50;71.30;;;;;;4992202;28;20073;-69
2023/07/12 02:21:20;;;;;;;5.43;3.15;;;23.50;71.40;;;;;;5003924;28;20125;-69
2023/07/12 02:24:06;;;;;;;12.10;3.50;;;23.50;71.60;;;;;;5008121;28;20598;-68
2023/07/12 02:26:52;;;;;;;4.43;3.05;;;23.40;71.80;;;;;;4993537;28;20395;-68
2023/07/12 02:29:38;;;;;;;7.57;3.97;;;23.50;72.40;;;;;;4992383;28;20034;-68
2023/07/12 02:32:26;;;;;;;5.85;3.60;;;23.40;72.10;;;;;;4990909;28;20014;-70
2023/07/12 02:35:13;;;;;;;4.93;3.45;;;23.40;72.20;;;;;;4997239;28;20072;-70
2023/07/12 02:38:00;;;;;;;4.50;3.03;;;23.40;72.30;;;;;;5008314;28;20041;-68
2023/07/12 02:40:46;;;;;;;5.45;3.50;;;23.40;72.40;;;;;;4997266;28;20472;-67
2023/07/12 02:43:32;;;;;;;6.50;3.58;;;23.40;72.50;;;;;;4995177;28;20053;-67
2023/07/12 02:46:18;;;;;;;6.28;3.40;;;23.40;72.60;;;;;;4999051;28;20517;-67
2023/07/12 02:49:04;;;;;;;6.78;3.50;;;23.40;72.60;;;;;;5012788;28;20045;-67
2023/07/12 02:51:50;;;;;;;6.43;3.60;;;23.40;72.70;;;;;;4996207;28;20037;-71
2023/07/12 02:54:36;;;;;;;8.63;3.60;;;23.40;72.80;;;;;;5003722;28;20061;-71
2023/07/12 02:57:22;;;;;;;6.38;3.88;;;23.40;72.90;;;;;;4994534;28;20433;-71
2023/07/12 03:00:08;;;;;;;6.30;3.42;;;23.40;73.00;;;;;;5002288;28;20487;-71
2023/07/12 03:02:54;;;;;;;8.43;3.90;;;23.40;73.10;;;;;;5003301;28;20049;-71
2023/07/12 03:05:40;;;;;;;7.07;3.70;;;23.40;73.20;;;;;;5000603;28;20129;-71
2023/07/12 03:08:26;;;;;;;4.97;3.42;;;23.50;73.30;;;;;;4996511;28;20538;-71
2023/07/12 03:11:13;;;;;;;5.05;3.20;;;23.60;73.40;;;;;;5000978;28;20034;-71
2023/07/12 03:13:59;;;;;;;4.78;3.22;;;23.50;73.50;;;;;;5012694;28;20057;-71
2023/07/12 03:16:46;;;;;;;5.68;3.85;;;23.60;73.60;;;;;;5003193;28;20030;-71
2023/07/12 03:19:35;;;;;;;6.03;4.22;;;23.60;73.60;;;;;;5011544;28;20029;-71
2023/07/12 03:22:21;;;;;;;4.95;3.80;;;23.60;73.60;;;;;;5014040;28;20041;-71
2023/07/12 03:25:07;;;;;;;5.28;3.20;;;23.60;73.70;;;;;;5011251;28;20034;-70
2023/07/12 03:27:53;;;;;;;6.13;3.88;;;23.70;73.80;;;;;;5002626;28;20033;-71
2023/07/12 03:30:39;;;;;;;5.95;4.13;;;23.70;73.90;;;;;;5012677;28;20383;-71
2023/07/12 03:33:26;;;;;;;6.82;4.32;;;23.70;73.90;;;;;;5008942;28;20034;-70
2023/07/12 03:36:13;;;;;;;9.15;4.05;;;23.70;74.00;;;;;;4995055;28;20045;-70
2023/07/12 03:39:00;;;;;;;9.00;4.78;;;23.70;74.10;;;;;;5003157;28;20045;-70
2023/07/12 03:41:46;;;;;;;7.68;4.30;;;23.70;74.10;;;;;;4994051;28;20046;-70
2023/07/12 03:44:32;;;;;;;8.50;4.40;;;23.70;74.10;;;;;;5010158;28;22080;-70
2023/07/12 03:47:18;;;;;;;8.15;4.53;;;23.80;74.20;;;;;;5012306;28;20431;-70
2023/07/12 03:50:04;;;;;;;7.07;4.65;;;23.80;74.30;;;;;;5006178;28;20034;-70
2023/07/12 03:52:50;;;;;;;8.93;4.60;;;23.80;74.50;;;;;;5000062;28;20046;-70
2023/07/12 03:55:41;;;;;;;7.63;5.03;;;23.80;74.60;;;;;;5010472;28;20030;-71
2023/07/12 03:58:33;;;;;;;6.38;4.43;;;23.80;74.60;;;;;;5010473;28;20064;-71
2023/07/12 04:01:19;;;;;;;9.23;3.95;;;23.90;74.70;;;;;;5002890;28;20503;-72
2023/07/12 04:04:05;;;;;;;6.90;4.50;;;23.90;74.90;;;;;;5004376;28;20048;-71
2023/07/12 04:06:51;;;;;;;5.70;4.20;;;23.90;75.00;;;;;;5009318;28;20502;-73
2023/07/12 04:09:37;;;;;;;5.88;4.00;;;23.90;75.10;;;;;;5008765;28;20689;-74
2023/07/12 04:12:23;;;;;;;6.47;4.43;;;24.00;75.30;;;;;;4997969;28;20053;-73
2023/07/12 04:15:10;;;;;;;7.18;4.80;;;24.00;75.40;;;;;;5001450;28;20092;-73
2023/07/12 04:17:56;;;;;;;7.00;4.32;;;24.00;75.60;;;;;;4997370;28;20022;-74
2023/07/12 04:20:42;;;;;;;7.70;4.80;;;24.00;75.60;;;;;;5005825;28;20038;-73
2023/07/12 04:23:27;;;;;;;8.20;4.40;;;24.00;75.70;;;;;;5009766;28;20049;-72
2023/07/12 04:26:15;;;;;;;6.93;4.40;;;24.10;75.80;;;;;;4996656;28;20093;-72
2023/07/12 04:29:01;;;;;;;10.80;5.13;;;24.20;76.00;;;;;;5000722;28;20045;-72
2023/07/12 04:31:47;;;;;;;6.93;4.38;;;24.20;76.10;;;;;;4999967;28;20045;-73
2023/07/12 04:34:33;;;;;;;6.38;4.13;;;24.20;76.00;;;;;;5009934;28;20045;-72
2023/07/12 04:37:18;;;;;;;8.52;4.70;;;24.20;76.10;;;;;;5001193;28;20044;-72
2023/07/12 04:40:05;;;;;;;6.75;3.97;;;24.20;76.00;;;;;;5008146;28;20128;-72
2023/07/12 04:42:51;;;;;;;7.55;4.63;;;24.30;76.50;;;;;;5011303;28;20401;-73
2023/07/12 04:45:39;;;;;;;9.45;5.72;;;24.30;77.00;;;;;;5002242;28;20038;-73
2023/07/12 04:48:26;;;;;;;9.63;5.53;;;24.40;76.70;;;;;;5010371;28;20030;-72
2023/07/12 04:51:12;;;;;;;10.15;5.43;;;24.40;76.70;;;;;;5001397;28;20430;-72
2023/07/12 04:53:58;;;;;;;7.78;5.75;;;24.40;77.00;;;;;;5011056;28;20033;-72
2023/07/12 04:56:44;;;;;;;8.05;5.32;;;24.40;76.70;;;;;;4993902;28;20184;-72
2023/07/12 04:59:30;;;;;;;7.53;4.72;;;24.50;76.70;;;;;;5002266;28;20034;-69
2023/07/12 05:02:16;;;;;;;8.70;5.43;;;24.60;76.90;;;;;;4996548;28;20046;-70
2023/07/12 05:05:02;;;;;;;8.20;5.25;;;24.60;77.00;;;;;;5003770;28;20034;-71
2023/07/12 05:07:48;;;;;;;9.13;5.85;;;24.60;77.00;;;;;;4999349;28;20041;-70
2023/07/12 05:10:34;;;;;;;7.47;4.78;;;24.70;77.20;;;;;;4993334;28;20034;-70
2023/07/12 05:13:20;;;;;;;8.77;5.65;;;24.70;77.30;;;;;;5001263;28;20410;-71
2023/07/12 05:16:06;;;;;;;9.43;5.72;;;24.70;77.50;;;;;;4991460;28;20034;-73
2023/07/12 05:18:52;;;;;;;7.82;5.82;;;24.80;77.70;;;;;;4996643;28;20117;-72
2023/07/12 05:21:38;;;;;;;8.65;5.40;;;24.90;77.60;;;;;;4994939;28;20660;-72
2023/07/12 05:24:24;;;;;;;7.28;5.35;;;24.90;77.70;;;;;;4999350;28;20717;-72
2023/07/12 05:27:10;;;;;;;9.65;4.78;;;25.00;77.70;;;;;;4994726;28;20030;-71
2023/07/12 05:29:56;;;;;;;9.90;5.75;;;25.10;77.90;;;;;;5002410;28;20038;-72
2023/07/12 05:32:42;;;;;;;9.85;5.97;;;25.10;77.80;;;;;;4994270;28;20442;-72
2023/07/12 05:35:28;;;;;;;10.57;6.40;;;25.20;77.80;;;;;;4993291;28;20026;-72
2023/07/12 05:38:14;;;;;;;7.45;5.45;;;25.30;77.90;;;;;;5009341;28;20038;-71
2023/07/12 05:41:00;;;;;;;11.32;5.90;;;25.30;78.00;;;;;;4990601;28;20034;-70
2023/07/12 05:43:46;;;;;;;7.88;5.45;;;25.40;78.00;;;;;;5008618;28;20045;-72
2023/07/12 05:46:32;;;;;;;12.95;6.18;;;25.40;77.90;;;;;;4990383;28;20437;-72
2023/07/12 05:49:18;;;;;;;13.25;5.78;;;25.50;77.90;;;;;;4995972;28;20466;-71
2023/07/12 05:52:05;;;;;;;14.57;6.70;;;25.50;78.10;;;;;;5001722;28;20118;-71
2023/07/12 05:54:50;;;;;;;9.70;6.32;;;25.50;78.10;;;;;;5007432;28;20030;-71
2023/07/12 05:57:36;;;;;;;13.68;5.50;;;25.50;78.10;;;;;;4993135;28;20042;-71
2023/07/12 06:00:23;;;;;;;11.25;6.55;;;25.60;78.30;;;;;;5007009;28;20128;-71
2023/07/12 06:03:09;;;;;;;10.25;5.43;;;25.60;78.40;;;;;;5006724;28;20103;-73
2023/07/12 06:05:56;;;;;;;11.60;6.57;;;25.60;78.60;;;;;;4997469;28;20402;-72
2023/07/12 06:08:42;;;;;;;10.57;5.57;;;25.60;78.70;;;;;;5005908;28;20049;-72
2023/07/12 06:11:28;;;;;;;14.45;6.40;;;25.60;78.70;;;;;;5000565;28;20612;-72
2023/07/12 06:14:14;;;;;;;9.10;5.88;;;25.70;79.00;;;;;;5000059;28;20026;-73
2023/07/12 06:17:00;;;;;;;10.02;6.30;;;25.70;79.10;;;;;;4993351;28;20350;-73
2023/07/12 06:19:46;;;;;;;10.60;5.55;;;25.70;79.10;;;;;;4991112;28;20044;-73
2023/07/12 06:22:32;;;;;;;8.90;5.50;;;25.70;79.30;;;;;;5000728;28;20471;-73
2023/07/12 06:25:19;;;;;;;9.73;5.65;;;25.70;79.40;;;;;;5002874;28;20022;-72
2023/07/12 06:28:05;;;;;;;11.48;5.63;;;25.80;79.70;;;;;;4992152;28;20131;-72
2023/07/12 06:30:52;;;;;;;8.20;5.40;;;25.80;80.00;;;;;;5003840;28;20034;-72
2023/07/12 06:33:38;;;;;;;8.23;5.25;;;25.80;79.80;;;;;;5008844;28;20044;-72
2023/07/12 06:36:24;;;;;;;10.68;6.00;;;25.90;80.00;;;;;;4993467;28;20026;-72
2023/07/12 06:39:10;;;;;;;9.27;5.28;;;26.00;80.20;;;;;;4990409;28;20037;-72
2023/07/12 06:41:56;;;;;;;7.90;5.25;;;26.10;80.30;;;;;;4992770;28;20073;-72
2023/07/12 06:44:42;;;;;;;19.05;5.22;;;26.10;80.20;;;;;;4996204;28;20023;-70
2023/07/12 06:47:28;;;;;;;11.25;4.97;;;26.30;80.30;;;;;;4990496;28;20034;-68
2023/07/12 06:50:14;;;;;;;8.00;4.93;;;26.40;80.40;;;;;;5001608;28;20128;-72
2023/07/12 06:53:00;;;;;;;13.15;4.97;;;26.50;80.30;;;;;;4998609;28;20129;-72
2023/07/12 06:55:47;;;;;;;7.85;4.32;;;26.60;80.50;;;;;;4990670;28;20030;-71
2023/07/12 06:58:34;;;;;;;7.72;4.43;;;26.70;80.60;;;;;;4989909;28;20749;-71
2023/07/12 07:01:20;;;;;;;8.43;4.38;;;26.80;80.50;;;;;;4993015;28;20085;-71
2023/07/12 07:04:06;;;;;;;16.80;5.40;;;26.90;80.50;;;;;;4990578;28;20692;-73
2023/07/12 07:06:52;;;;;;;7.07;4.90;;;26.90;80.50;;;;;;5003539;28;20038;-65
2023/07/12 07:09:38;;;;;;;6.75;4.35;;;27.10;80.50;;;;;;4994286;28;20041;-71
2023/07/12 07:12:24;;;;;;;6.45;4.53;;;27.10;80.70;;;;;;5001333;28;20294;-72
2023/07/12 07:15:10;;;;;;;6.95;3.80;;;27.30;80.60;;;;;;4989999;28;20023;-72
2023/07/12 07:17:57;;;;;;;8.25;4.63;;;27.40;80.50;;;;;;4990494;28;20038;-73
2023/07/12 07:20:45;;;;;;;10.00;4.25;;;27.60;80.20;;;;;;4996859;28;20108;-69
2023/07/12 07:23:33;;;;;;;6.80;4.43;;;27.70;80.00;;;;;;4993169;28;20038;-71
2023/07/12 07:26:18;;;;;;;6.50;4.43;;;27.80;79.50;;;;;;4993368;28;20069;-71
2023/07/12 07:29:04;;;;;;;7.63;4.97;;;27.90;79.30;;;;;;5003603;28;20049;-72
2023/07/12 07:31:50;;;;;;;8.68;5.00;;;27.90;78.90;;;;;;5004429;28;21280;-73
2023/07/12 07:34:36;;;;;;;9.48;4.38;;;27.80;78.70;;;;;;5010590;28;20487;-71
2023/07/12 07:37:22;;;;;;;5.78;4.00;;;27.80;78.80;;;;;;4999122;28;20169;-71
2023/07/12 07:40:09;;;;;;;7.50;4.03;;;27.80;78.80;;;;;;4999754;28;20109;-72
2023/07/12 07:42:55;;;;;;;10.32;4.43;;;27.80;78.60;;;;;;5001694;28;20407;-73
2023/07/12 07:45:42;;;;;;;9.63;4.75;;;27.80;78.60;;;;;;4994572;28;20454;-73
2023/07/12 07:48:28;;;;;;;7.22;4.32;;;27.80;78.40;;;;;;4999009;28;20041;-72
2023/07/12 07:51:14;;;;;;;6.68;4.97;;;27.80;78.10;;;;;;5000539;28;20030;-72
2023/07/12 07:54:00;;;;;;;7.45;4.63;;;27.80;77.90;;;;;;4999859;28;20399;-66
2023/07/12 07:56:48;;;;;;;6.43;4.22;;;27.90;77.70;;;;;;4993189;28;20062;-72
2023/07/12 07:59:34;;;;;;;13.65;5.35;;;27.80;77.30;;;;;;4998086;28;20113;-73
2023/07/12 08:02:22;;;;;;;9.70;4.88;;;27.80;76.70;;;;;;4994354;28;20069;-73
2023/07/12 08:05:10;;;;;;;8.90;5.00;;;27.70;76.60;;;;;;5001169;28;20196;-73
2023/07/12 08:07:56;;;;;;;7.20;3.92;;;27.60;76.40;;;;;;4997731;28;20494;-70
2023/07/12 08:10:43;;;;;;;6.53;4.70;;;27.50;76.30;;;;;;4997037;28;20081;-74
2023/07/12 08:13:29;;;;;;;7.47;4.55;;;27.40;76.50;;;;;;4992859;28;20137;-72
2023/07/12 08:16:15;;;;;;;5.78;4.05;;;27.40;76.50;;;;;;5006793;28;20030;-71
2023/07/12 08:19:04;;;;;;;5.60;3.85;;;27.40;76.60;;;;;;5003494;28;20037;-71
2023/07/12 08:21:50;;;;;;;6.50;4.25;;;27.40;76.50;;;;;;4991234;28;20023;-72
2023/07/12 08:24:36;;;;;;;6.45;3.45;;;27.40;76.50;;;;;;4994873;28;20504;-72
2023/07/12 08:27:22;;;;;;;5.07;3.75;;;27.40;76.50;;;;;;4989192;28;20060;-69
2023/07/12 08:30:09;;;;;;;5.30;3.65;;;27.40;76.50;;;;;;4993676;28;20045;-73
2023/07/12 08:32:55;;;;;;;6.85;3.47;;;27.40;76.40;;;;;;4999713;28;20502;-76
2023/07/12 08:35:41;;;;;;;8.90;3.55;;;27.40;76.00;;;;;;5004117;28;20104;-73
2023/07/12 08:38:31;;;;;;;5.00;2.95;;;27.50;75.40;;;;;;4991340;28;20479;-73
2023/07/12 08:41:21;;;;;;;4.65;2.90;;;27.50;75.00;;;;;;5006382;28;20045;-72
2023/07/12 08:44:13;;;;;;;5.22;3.10;;;27.50;74.80;;;;;;4993372;28;20455;-72
2023/07/12 08:47:00;;;;;;;5.82;3.03;;;27.50;74.90;;;;;;4992643;28;20076;-73
2023/07/12 08:49:46;;;;;;;5.20;2.50;;;27.60;74.70;;;;;;4992977;28;20022;-71
2023/07/12 08:52:33;;;;;;;5.10;2.90;;;27.60;74.50;;;;;;5001278;28;20041;-73
2023/07/12 08:55:20;;;;;;;3.33;2.40;;;27.60;74.50;;;;;;4999781;28;20042;-71
2023/07/12 08:58:26;;;;;;;3.70;2.30;;;27.60;74.30;;;;;;4992912;28;20042;-73
2023/07/12 09:01:27;;;;;;;4.80;2.33;;;27.60;74.50;;;;;;4991531;28;20030;-73
2023/07/12 09:04:31;;;;;;;4.15;2.50;;;27.60;74.90;;;;;;4992059;28;20041;-75
2023/07/12 09:07:27;;;;;;;6.32;2.83;;;27.50;74.50;;;;;;4995151;28;20128;-73
2023/07/12 09:10:32;;;;;;;4.68;3.05;;;27.50;74.90;;;;;;5000614;28;20041;-72
2023/07/12 09:13:18;;;;;;;2.90;2.05;;;27.40;75.00;;;;;;4996169;28;20074;-74
2023/07/12 09:16:19;;;;;;;3.75;2.42;;;27.30;75.10;;;;;;4992420;28;20023;-73
2023/07/12 09:19:30;;;;;;;3.45;2.10;;;27.30;75.10;;;;;;4990653;28;20037;-73
2023/07/12 09:22:20;;;;;;;3.05;2.10;;;27.30;75.30;;;;;;4991843;28;20046;-72
2023/07/12 09:25:19;;;;;;;2.65;1.73;;;27.30;75.30;;;;;;5005388;28;20029;-71
2023/07/12 09:28:10;;;;;;;3.00;2.47;;;27.30;75.40;;;;;;4999197;28;20035;-72
2023/07/12 09:31:13;;;;;;;4.25;2.55;;;27.30;75.50;;;;;;4999911;28;20026;-72
2023/07/12 09:34:05;;;;;;;3.63;2.30;;;27.40;75.70;;;;;;4990136;28;20026;-75
2023/07/12 09:36:58;;;;;;;4.22;2.53;;;27.40;75.80;;;;;;4991445;28;20072;-73
2023/07/12 09:39:59;;;;;;;6.75;2.65;;;27.40;75.80;;;;;;4993725;28;20039;-74
2023/07/12 09:42:47;;;;;;;4.80;2.15;;;27.40;76.10;;;;;;4990655;28;20053;-72
2023/07/12 09:45:36;;;;;;;2.85;1.75;;;27.40;76.20;;;;;;5003193;28;20056;-73
2023/07/12 09:48:35;;;;;;;3.83;2.13;;;27.40;76.30;;;;;;5002882;28;20042;-72
2023/07/12 09:51:27;;;;;;;5.95;2.00;;;27.50;76.40;;;;;;4993196;28;20068;-73
2023/07/12 09:54:34;;;;;;;3.08;2.03;;;27.50;76.10;;;;;;4991440;28;21936;-73
2023/07/12 09:57:41;;;;;;;3.20;2.08;;;27.50;76.00;;;;;;4994273;28;20041;-71
2023/07/12 10:00:37;;;;;;;2.50;1.98;;;27.60;76.20;;;;;;5006733;28;20036;-72
2023/07/12 10:03:27;;;;;;;4.70;2.38;;;27.60;76.20;;;;;;5002884;28;20046;-71
2023/07/12 10:06:22;;;;;;;4.85;2.13;;;27.70;76.30;;;;;;5004961;28;20380;-71
2023/07/12 10:09:46;;;;;;;3.50;2.53;;;27.80;76.40;;;;;;4995403;28;20089;-71
2023/07/12 10:12:49;;;;;;;6.10;2.38;;;28.00;76.40;;;;;;4967513;28;20531;-70
2023/07/12 10:15:39;;;;;;;4.32;2.25;;;28.00;76.20;;;;;;4996393;28;20038;-72
2023/07/12 10:18:28;;;;;;;3.53;2.15;;;28.10;76.00;;;;;;4999564;28;20065;-72
2023/07/12 10:21:22;;;;;;;2.15;1.63;;;28.20;75.70;;;;;;5002014;28;20511;-72
2023/07/12 10:24:15;;;;;;;3.47;2.08;;;28.30;75.50;;;;;;4998396;28;20048;-72
2023/07/12 10:27:09;;;;;;;3.58;1.67;;;28.40;75.30;;;;;;4992857;28;20381;-72
2023/07/12 10:30:00;;;;;;;2.63;1.60;;;28.40;74.80;;;;;;5005965;28;20041;-71
2023/07/12 10:32:56;;;;;;;4.35;2.28;;;28.40;75.00;;;;;;5000678;28;20305;-72
2023/07/12 10:35:49;;;;;;;5.45;2.33;;;28.30;75.00;;;;;;4989848;28;20427;-73
2023/07/12 10:38:35;;;;;;;2.85;1.67;;;28.30;75.00;;;;;;4993203;28;20034;-72
2023/07/12 10:41:44;;;;;;;3.03;1.55;;;28.40;74.80;;;;;;4991562;28;20042;-72
2023/07/12 10:44:35;;;;;;;3.10;1.70;;;28.40;74.40;;;;;;4999877;28;20132;-71
2023/07/12 10:47:27;;;;;;;2.83;1.52;;;28.50;74.50;;;;;;4990817;28;20088;-72
2023/07/12 10:50:47;;;;;;;1.77;1.42;;;28.50;74.10;;;;;;4998891;28;20048;-71
2023/07/12 10:53:48;;;;;;;2.20;1.48;;;28.60;73.80;;;;;;5001607;28;20085;-73
2023/07/12 10:56:52;;;;;;;6.85;3.25;;;28.70;73.10;;;;;;5003251;28;20478;-71
2023/07/12 10:59:44;;;;;;;2.90;1.60;;;28.70;73.30;;;;;;5002609;28;20462;-72
2023/07/12 11:02:44;;;;;;;4.82;1.90;;;28.70;72.50;;;;;;4999200;28;20483;-71
2023/07/12 11:05:40;;;;;;;3.83;2.38;;;28.70;72.40;;;;;;5006941;28;20037;-74
2023/07/12 11:08:32;;;;;;;2.88;2.00;;;28.70;72.20;;;;;;4998899;28;20108;-73
2023/07/12 11:11:21;;;;;;;2.70;1.52;;;28.80;72.10;;;;;;5002533;28;20092;-70
2023/07/12 11:14:20;;;;;;;2.33;1.55;;;28.80;71.40;;;;;;5018003;28;20457;-69
2023/07/12 11:17:06;;;;;;;2.22;1.65;;;28.80;71.70;;;;;;5005835;28;20034;-72
2023/07/12 11:20:06;;;;;;;2.65;1.60;;;28.80;71.10;;;;;;5006220;28;20026;-71
2023/07/12 11:23:21;;;;;;;5.35;2.10;;;28.90;70.90;;;;;;5003671;28;20046;-71
2023/07/12 11:26:27;;;;;;;4.03;1.40;;;28.90;70.30;;;;;;4997622;28;20364;-70
2023/07/12 11:29:25;;;;;;;5.30;1.50;;;28.90;69.30;;;;;;4999866;28;20065;-69
2023/07/12 11:32:20;;;;;;;2.63;1.30;;;28.90;68.70;;;;;;4991590;28;20360;-70
2023/07/12 11:35:16;;;;;;;2.35;1.63;;;28.90;67.70;;;;;;4993806;28;20038;-70
2023/07/12 11:38:04;;;;;;;2.67;1.52;;;28.90;67.70;;;;;;5001116;28;20085;-71
2023/07/12 11:40:56;;;;;;;2.47;1.55;;;28.90;67.70;;;;;;5008153;28;20458;-68
2023/07/12 11:43:42;;;;;;;2.83;1.50;;;28.90;67.40;;;;;;5005777;28;20125;-71
2023/07/12 11:46:33;;;;;;;1.10;1.00;;;28.80;67.20;;;;;;5011988;28;20044;-70
2023/07/12 11:49:22;;;;;;;3.35;1.27;;;28.80;67.30;;;;;;4997482;28;20037;-70
2023/07/12 11:52:15;;;;;;;2.85;1.67;;;28.70;67.30;;;;;;4999955;28;20040;-71
2023/07/12 11:55:13;;;;;;;1.40;1.10;;;28.70;67.30;;;;;;4999381;28;20096;-71
2023/07/12 11:57:59;;;;;;;1.92;1.48;;;28.60;67.60;;;;;;5008793;28;20084;-71
2023/07/12 12:00:47;;;;;;;1.77;1.17;;;28.70;68.00;;;;;;4998586;28;20121;-71
2023/07/12 12:03:34;;;;;;;3.72;1.50;;;28.70;68.10;;;;;;5007698;28;20030;-71
2023/07/12 12:06:20;;;;;;;3.30;1.55;;;28.70;67.90;;;;;;4994696;28;20514;-71
2023/07/12 12:09:08;;;;;;;2.00;1.30;;;28.80;67.40;;;;;;5000043;28;20046;-70
2023/07/12 12:11:57;;;;;;;3.03;1.60;;;28.80;67.10;;;;;;4996707;28;20046;-71
2023/07/12 12:14:46;;;;;;;2.97;1.70;;;28.80;67.40;;;;;;5000724;28;20046;-71
2023/07/12 12:17:36;;;;;;;2.08;1.30;;;28.90;66.80;;;;;;4992186;28;20109;-71
2023/07/12 12:20:33;;;;;;;2.55;1.48;;;28.80;66.40;;;;;;4992097;28;20495;-71
2023/07/12 12:23:26;;;;;;;7.72;1.55;;;28.80;66.00;;;;;;5006864;28;20474;-71
2023/07/12 12:26:22;;;;;;;1.77;1.15;;;28.90;65.60;;;;;;5003220;28;20061;-72
2023/07/12 12:29:22;;;;;;;2.08;1.27;;;28.90;65.50;;;;;;4994049;28;20037;-69
2023/07/12 12:32:15;;;;;;;3.78;1.67;;;29.00;65.40;;;;;;5000664;28;20034;-75
2023/07/12 12:35:01;;;;;;;1.98;1.33;;;29.00;65.40;;;;;;5007254;28;20038;-73
2023/07/12 12:38:11;;;;;;;2.83;1.15;;;29.00;66.00;;;;;;5009266;28;20439;-66
2023/07/12 12:41:14;;;;;;;2.22;1.40;;;29.00;64.60;;;;;;5008143;28;20074;-69
2023/07/12 12:44:16;;;;;;;2.78;1.40;;;29.10;64.20;;;;;;5005832;28;20046;-73
2023/07/12 12:47:14;;;;;;;3.90;1.33;;;29.20;64.10;;;;;;4995143;28;20084;-70
2023/07/12 12:50:01;;;;;;;2.15;1.13;;;29.20;64.30;;;;;;5000946;28;20026;-69
2023/07/12 12:52:47;;;;;;;21.38;1.48;;;29.30;64.00;;;;;;4991622;28;20022;-69
2023/07/12 12:55:39;;;;;;;1.85;1.27;;;29.40;63.70;;;;;;4997721;28;20093;-69
2023/07/12 12:58:24;;;;;;;3.88;1.33;;;29.50;63.70;;;;;;4992117;28;20038;-70
2023/07/12 13:01:14;;;;;;;3.35;1.83;;;29.60;63.70;;;;;;4999871;28;20385;-69
2023/07/12 13:03:59;;;;;;;1.73;1.13;;;29.80;63.50;;;;;;5005272;28;20061;-69
2023/07/12 13:06:45;;;;;;;2.47;0.93;;;29.80;62.80;;;;;;5004385;28;20062;-70
2023/07/12 13:09:32;;;;;;;1.17;1.00;;;30.00;62.80;;;;;;4999455;28;20104;-70
2023/07/12 13:12:21;;;;;;;1.55;1.10;;;30.00;61.90;;;;;;5004114;28;20046;-70
2023/07/12 13:15:12;;;;;;;3.38;1.45;;;30.00;61.50;;;;;;4997595;28;20050;-69
2023/07/12 13:17:58;;;;;;;1.58;1.10;;;30.00;61.10;;;;;;4996820;28;20022;-70
2023/07/12 13:20:44;;;;;;;1.63;1.08;;;30.00;61.20;;;;;;4996694;28;20495;-70
2023/07/12 13:23:30;;;;;;;1.67;0.90;;;30.00;61.00;;;;;;4999380;28;20108;-70
2023/07/12 13:26:19;;;;;;;5.85;1.20;;;30.00;60.70;;;;;;4994133;28;20380;-70
2023/07/12 13:29:16;;;;;;;1.35;0.88;;;30.00;60.50;;;;;;5000918;28;20061;-69
2023/07/12 13:32:03;;;;;;;7.57;1.70;;;30.10;60.60;;;;;;5008241;28;20149;-69
2023/07/12 13:34:51;;;;;;;1.20;0.93;;;30.20;60.40;;;;;;4993446;28;20161;-70
2023/07/12 13:37:38;;;;;;;3.13;0.90;;;30.30;60.10;;;;;;4990261;28;20030;-70
2023/07/12 13:40:24;;;;;;;1.73;1.10;;;30.40;59.40;;;;;;4991520;28;20129;-68
2023/07/12 13:43:12;;;;;;;1.27;0.95;;;30.50;59.10;;;;;;4990419;28;20317;-69
2023/07/12 13:46:00;;;;;;;1.77;0.93;;;30.60;58.60;;;;;;4999629;28;20034;-69
2023/07/12 13:48:48;;;;;;;1.15;0.77;;;30.70;58.30;;;;;;4991880;28;20050;-69
2023/07/12 13:51:34;;;;;;;3.03;0.88;;;30.70;57.70;;;;;;4991998;28;20407;-70
2023/07/12 13:54:20;;;;;;;2.95;1.13;;;30.80;57.40;;;;;;4993753;28;20030;-69
2023/07/12 13:57:15;;;;;;;1.77;0.88;;;30.70;57.10;;;;;;5002915;28;20382;-68
2023/07/12 14:00:01;;;;;;;2.30;0.95;;;30.70;56.90;;;;;;5001855;28;20368;-73
2023/07/12 14:02:52;;;;;;;1.83;0.85;;;30.70;57.10;;;;;;5006304;28;20053;-70
2023/07/12 14:05:38;;;;;;;0.70;0.70;;;30.70;56.60;;;;;;4995960;28;20038;-71
2023/07/12 14:08:24;;;;;;;1.70;0.80;;;30.80;56.50;;;;;;4994789;28;20050;-70
2023/07/12 14:11:31;;;;;;;1.30;0.90;;;30.80;56.30;;;;;;5010054;28;20494;-71
2023/07/12 14:14:17;;;;;;;2.72;0.93;;;30.80;56.40;;;;;;4993261;28;20199;-70
2023/07/12 14:17:03;;;;;;;0.82;0.68;;;30.90;55.80;;;;;;5022085;28;20037;-72
2023/07/12 14:19:55;;;;;;;3.80;0.95;;;30.90;55.40;;;;;;5006963;28;20026;-71
2023/07/12 14:22:42;;;;;;;1.55;0.75;;;30.90;55.20;;;;;;5007881;28;20204;-71
2023/07/12 14:25:27;;;;;;;2.60;0.90;;;31.00;54.70;;;;;;4999746;28;20040;-70
2023/07/12 14:28:13;;;;;;;1.10;0.75;;;30.90;54.30;;;;;;4996416;28;20026;-71
2023/07/12 14:30:59;;;;;;;1.83;0.70;;;30.90;54.50;;;;;;5012185;28;20026;-71
2023/07/12 14:33:45;;;;;;;1.35;0.85;;;31.00;54.60;;;;;;5012104;28;20042;-74
2023/07/12 14:36:31;;;;;;;1.10;1.00;;;31.00;54.20;;;;;;5004367;28;20157;-71
2023/07/12 14:39:17;;;;;;;2.03;1.10;;;31.00;54.10;;;;;;5001219;28;20161;-71